sensor_id;sensor_type;location;lat;lon;timestamp;pressure;altitude;pressure_sealevel;temperature;humidity
45113;BME280;30873;53.908;27.576;2023-04-02T00:01:26;1002.7;;;12.9;100
45113;BME280;30873;53.908;27.576;2023-04-02T00:05:59;1002.8;;;12.8;100
45113;BME280;30873;53.908;27.576;2023-04-02T00:11:35;1002.8;;;12.6;100
45113;BME280;30873;53.908;27.576;2023-04-02T00:15:53;1002.8;;;12.5;100
45113;BME280;30873;53.908;27.576;2023-04-02T00:20:52;1002.8;;;12.5;100
45113;BME280;30873;53.908;27.576;2023-04-02T00:26:29;1002.9;;;12.4;100
45113;BME280;30873;53.908;27.576;2023-04-02T00:31:09;1002.9;;;12.4;100
45113;BME280;30873;53.908;27.576;2023-04-02T00:36:37;1002.9;;;12.3;100
45113;BME280;30873;53.908;27.576;2023-04-02T00:40:51;1003;;;12.4;100
45113;BME280;30873;53.908;27.576;2023-04-02T00:46:24;1003;;;12.4;100
45113;BME280;30873;53.908;27.576;2023-04-02T00:51:28;1003.1;;;12.3;100
45113;BME280;30873;53.908;27.576;2023-04-02T00:55:51;1003.1;;;12.4;100
45113;BME280;30873;53.908;27.576;2023-04-02T01:01:39;1003.1;;;12.4;100
45113;BME280;30873;53.908;27.576;2023-04-02T01:05:54;1003.1;;;12.3;100
45113;BME280;30873;53.908;27.576;2023-04-02T01:10:54;1003.2;;;12.4;100
45113;BME280;30873;53.908;27.576;2023-04-02T01:16:31;1003.2;;;12.4;100
45113;BME280;30873;53.908;27.576;2023-04-02T01:21:15;1003.1;;;12.5;100
45113;BME280;30873;53.908;27.576;2023-04-02T01:26:41;1003.1;;;12.4;100
45113;BME280;30873;53.908;27.576;2023-04-02T01:31:13;1003.1;;;12.4;100
45113;BME280;30873;53.908;27.576;2023-04-02T01:36:10;1003.1;;;12.5;100
45113;BME280;30873;53.908;27.576;2023-04-02T01:41:30;1003.2;;;12.5;100
45113;BME280;30873;53.908;27.576;2023-04-02T01:46:22;1003.2;;;12.5;100
45113;BME280;30873;53.908;27.576;2023-04-02T01:51:38;1003.2;;;12.5;100
45113;BME280;30873;53.908;27.576;2023-04-02T01:56:21;1003.3;;;12.5;100
45113;BME280;30873;53.908;27.576;2023-04-02T02:01:01;1003.3;;;12.4;100
45113;BME280;30873;53.908;27.576;2023-04-02T02:06:27;1003.4;;;12.3;100
45113;BME280;30873;53.908;27.576;2023-04-02T02:11:11;1003.4;;;12.4;100
45113;BME280;30873;53.908;27.576;2023-04-02T02:16:37;1003.5;;;12.5;100
45113;BME280;30873;53.908;27.576;2023-04-02T02:21:03;1003.5;;;12.4;100
45113;BME280;30873;53.908;27.576;2023-04-02T02:26:09;1003.5;;;12.5;100
45113;BME280;30873;53.908;27.576;2023-04-02T02:31:28;1003.5;;;12.4;100
45113;BME280;30873;53.908;27.576;2023-04-02T02:36:12;1003.6;;;12.4;100
45113;BME280;30873;53.908;27.576;2023-04-02T02:41:38;1003.6;;;12.4;100
45113;BME280;30873;53.908;27.576;2023-04-02T02:45:51;1003.6;;;12.4;100
45113;BME280;30873;53.908;27.576;2023-04-02T02:51:26;1003.6;;;12.4;100
45113;BME280;30873;53.908;27.576;2023-04-02T02:56:40;1003.6;;;12.3;100
45113;BME280;30873;53.908;27.576;2023-04-02T03:00:59;1003.7;;;12.3;100
45113;BME280;30873;53.908;27.576;2023-04-02T03:05:51;1003.7;;;12.3;100
45113;BME280;30873;53.908;27.576;2023-04-02T03:11:01;1003.7;;;12.3;100
45113;BME280;30873;53.908;27.576;2023-04-02T03:16:26;1003.8;;;12.4;100
45113;BME280;30873;53.908;27.576;2023-04-02T03:21:40;1003.8;;;12.4;100
45113;BME280;30873;53.908;27.576;2023-04-02T03:26:10;1003.9;;;12.5;100
45113;BME280;30873;53.908;27.576;2023-04-02T03:31:24;1004;;;12.4;100
45113;BME280;30873;53.908;27.576;2023-04-02T03:36:02;1004.1;;;12.3;100
45113;BME280;30873;53.908;27.576;2023-04-02T03:41:22;1004.1;;;12.2;100
45113;BME280;30873;53.908;27.576;2023-04-02T03:46:38;1004.1;;;12.2;100
45113;BME280;30873;53.908;27.576;2023-04-02T03:51:11;1004.2;;;12.2;100
45113;BME280;30873;53.908;27.576;2023-04-02T03:56:25;1004.3;;;12.3;100
45113;BME280;30873;53.908;27.576;2023-04-02T04:01:27;1004.3;;;12.3;100
45113;BME280;30873;53.908;27.576;2023-04-02T04:06:22;1004.4;;;12.2;100
45113;BME280;30873;53.908;27.576;2023-04-02T04:11:42;1004.5;;;12.2;100
45113;BME280;30873;53.908;27.576;2023-04-02T04:15:51;1004.6;;;12;100
45113;BME280;30873;53.908;27.576;2023-04-02T04:21:25;1004.7;;;11.9;100
45113;BME280;30873;53.908;27.576;2023-04-02T04:25:55;1004.7;;;11.8;100
45113;BME280;30873;53.908;27.576;2023-04-02T04:31:25;1004.8;;;11.7;100
45113;BME280;30873;53.908;27.576;2023-04-02T04:36:40;1004.8;;;11.7;100
45113;BME280;30873;53.908;27.576;2023-04-02T04:41:00;1004.9;;;11.7;100
45113;BME280;30873;53.908;27.576;2023-04-02T04:46:42;1004.9;;;11.7;100
45113;BME280;30873;53.908;27.576;2023-04-02T04:50:52;1005;;;11.7;100
45113;BME280;30873;53.908;27.576;2023-04-02T04:56:25;1005.1;;;11.5;100
45113;BME280;30873;53.908;27.576;2023-04-02T05:01:41;1005.1;;;11.4;100
45113;BME280;30873;53.908;27.576;2023-04-02T05:06:13;1005.2;;;11.4;100
45113;BME280;30873;53.908;27.576;2023-04-02T05:11:22;1005.4;;;11.3;100
45113;BME280;30873;53.908;27.576;2023-04-02T05:15:52;1005.5;;;11.4;100
45113;BME280;30873;53.908;27.576;2023-04-02T05:21:04;1005.5;;;11.5;100
45113;BME280;30873;53.908;27.576;2023-04-02T05:26:38;1005.6;;;11.5;100
45113;BME280;30873;53.908;27.576;2023-04-02T05:31:09;1005.7;;;11.3;100
45113;BME280;30873;53.908;27.576;2023-04-02T05:36:26;1005.7;;;11.2;100
45113;BME280;30873;53.908;27.576;2023-04-02T05:41:27;1005.8;;;11.2;100
45113;BME280;30873;53.908;27.576;2023-04-02T05:46:15;1005.8;;;11.2;100
45113;BME280;30873;53.908;27.576;2023-04-02T05:51:40;1005.9;;;11.2;100
45113;BME280;30873;53.908;27.576;2023-04-02T05:56:10;1006;;;11.1;100
45113;BME280;30873;53.908;27.576;2023-04-02T06:01:26;1005.9;;;11.1;100
45113;BME280;30873;53.908;27.576;2023-04-02T06:06:02;1006;;;11.1;100
45113;BME280;30873;53.908;27.576;2023-04-02T06:11:24;1006;;;11.1;100
45113;BME280;30873;53.908;27.576;2023-04-02T06:16:39;1006.1;;;11.2;100
45113;BME280;30873;53.908;27.576;2023-04-02T06:20:51;1006.2;;;11.4;100
45113;BME280;30873;53.908;27.576;2023-04-02T06:26:23;1006.2;;;11.5;100
45113;BME280;30873;53.908;27.576;2023-04-02T06:31:16;1006.3;;;11.5;100
45113;BME280;30873;53.908;27.576;2023-04-02T06:36:19;1006.4;;;11.8;100
45113;BME280;30873;53.908;27.576;2023-04-02T06:41:37;1006.4;;;11.7;100
45113;BME280;30873;53.908;27.576;2023-04-02T06:46:08;1006.5;;;11.6;100
45113;BME280;30873;53.908;27.576;2023-04-02T06:51:21;1006.6;;;11.7;100
45113;BME280;30873;53.908;27.576;2023-04-02T06:56:16;1006.8;;;11.9;100
45113;BME280;30873;53.908;27.576;2023-04-02T07:01:22;1006.8;;;11.6;100
45113;BME280;30873;53.908;27.576;2023-04-02T07:06:37;1006.9;;;11.4;100
45113;BME280;30873;53.908;27.576;2023-04-02T07:10:59;1007;;;11.4;100
45113;BME280;30873;53.908;27.576;2023-04-02T07:16:37;1007.1;;;11.6;100
45113;BME280;30873;53.908;27.576;2023-04-02T07:21:13;1007.2;;;11.7;100
45113;BME280;30873;53.908;27.576;2023-04-02T07:26:23;1007.3;;;11.4;100
45113;BME280;30873;53.908;27.576;2023-04-02T07:31:36;1007.4;;;11.4;100
45113;BME280;30873;53.908;27.576;2023-04-02T07:35:59;1007.5;;;11.5;100
45113;BME280;30873;53.908;27.576;2023-04-02T07:41:55;1007.6;;;11.3;100
45113;BME280;30873;53.908;27.576;2023-04-02T07:46:13;1007.7;;;11;100
45113;BME280;30873;53.908;27.576;2023-04-02T07:51:21;1007.8;;;10.9;100
45113;BME280;30873;53.908;27.576;2023-04-02T07:56:37;1007.8;;;10.9;100
45113;BME280;30873;53.908;27.576;2023-04-02T08:01:13;1007.9;;;10.9;100
45113;BME280;30873;53.908;27.576;2023-04-02T08:06:37;1007.9;;;11;100
45113;BME280;30873;53.908;27.576;2023-04-02T08:10:57;1008;;;10.8;100
45113;BME280;30873;53.908;27.576;2023-04-02T08:16:19;1008;;;10.9;100
45113;BME280;30873;53.908;27.576;2023-04-02T08:21:35;1008.1;;;11.1;100
45113;BME280;30873;53.908;27.576;2023-04-02T08:25:51;1008.1;;;11.3;100
45113;BME280;30873;53.908;27.576;2023-04-02T08:31:37;1008.2;;;11.2;100
45113;BME280;30873;53.908;27.576;2023-04-02T08:35:57;1008.3;;;11.1;100
45113;BME280;30873;53.908;27.576;2023-04-02T08:41:24;1008.4;;;11;100
45113;BME280;30873;53.908;27.576;2023-04-02T08:46:40;1008.4;;;11.1;100
45113;BME280;30873;53.908;27.576;2023-04-02T08:50:59;1008.5;;;10.9;100
45113;BME280;30873;53.908;27.576;2023-04-02T08:56:38;1008.6;;;10.9;100
45113;BME280;30873;53.908;27.576;2023-04-02T09:00:59;1008.7;;;10.8;100
45113;BME280;30873;53.908;27.576;2023-04-02T09:05:51;1008.7;;;10.8;100
45113;BME280;30873;53.908;27.576;2023-04-02T09:11:40;1008.8;;;10.9;100
45113;BME280;30873;53.908;27.576;2023-04-02T09:16:08;1008.9;;;10.8;100
45113;BME280;30873;53.908;27.576;2023-04-02T09:21:39;1008.9;;;10.8;100
45113;BME280;30873;53.908;27.576;2023-04-02T09:26:10;1008.9;;;10.8;100
45113;BME280;30873;53.908;27.576;2023-04-02T09:31:24;1009;;;10.5;100
45113;BME280;30873;53.908;27.576;2023-04-02T09:36:39;1009.1;;;10.3;100
45113;BME280;30873;53.908;27.576;2023-04-02T09:41:00;1009.2;;;10.2;100
45113;BME280;30873;53.908;27.576;2023-04-02T09:46:45;1009.3;;;10.3;100
45113;BME280;30873;53.908;27.576;2023-04-02T09:51:14;1009.3;;;10.5;100
45113;BME280;30873;53.908;27.576;2023-04-02T09:56:22;1009.4;;;10.7;100
45113;BME280;30873;53.908;27.576;2023-04-02T10:01:40;1009.4;;;10.5;100
45113;BME280;30873;53.908;27.576;2023-04-02T10:06:03;1009.4;;;10.5;100
45113;BME280;30873;53.908;27.576;2023-04-02T10:11:39;1009.5;;;10.2;100
45113;BME280;30873;53.908;27.576;2023-04-02T10:16:15;1009.7;;;10.1;100
45113;BME280;30873;53.908;27.576;2023-04-02T10:21:22;1009.8;;;10;100
45113;BME280;30873;53.908;27.576;2023-04-02T10:26:43;1009.9;;;9.9;100
45113;BME280;30873;53.908;27.576;2023-04-02T10:31:38;1010;;;9.8;100
45113;BME280;30873;53.908;27.576;2023-04-02T10:36:42;1010.1;;;9.6;100
45113;BME280;30873;53.908;27.576;2023-04-02T10:40:52;1010.1;;;9.5;100
45113;BME280;30873;53.908;27.576;2023-04-02T10:46:24;1010.2;;;9.6;100
45113;BME280;30873;53.908;27.576;2023-04-02T10:51:40;1010.2;;;9.5;100
45113;BME280;30873;53.908;27.576;2023-04-02T10:55:52;1010.3;;;9.6;100
45113;BME280;30873;53.908;27.576;2023-04-02T11:01:39;1010.4;;;9.6;100
45113;BME280;30873;53.908;27.576;2023-04-02T11:05:52;1010.4;;;9.6;100
45113;BME280;30873;53.908;27.576;2023-04-02T11:11:25;1010.5;;;9.6;100
45113;BME280;30873;53.908;27.576;2023-04-02T11:16:33;1010.6;;;9.9;100
45113;BME280;30873;53.908;27.576;2023-04-02T11:21:35;1010.7;;;9.8;100
45113;BME280;30873;53.908;27.576;2023-04-02T11:26:39;1010.8;;;9.6;100
45113;BME280;30873;53.908;27.576;2023-04-02T11:31:18;1010.9;;;9.6;100
45113;BME280;30873;53.908;27.576;2023-04-02T11:36:01;1011;;;9.7;100
45113;BME280;30873;53.908;27.576;2023-04-02T11:41:01;1011;;;9.5;100
45113;BME280;30873;53.908;27.576;2023-04-02T11:46:29;1011.2;;;9.3;100
45113;BME280;30873;53.908;27.576;2023-04-02T11:51:47;1011.2;;;9.7;100
45113;BME280;30873;53.908;27.576;2023-04-02T11:56:18;1011.3;;;9.8;100
45113;BME280;30873;53.908;27.576;2023-04-02T12:01:44;1011.4;;;10;100
45113;BME280;30873;53.908;27.576;2023-04-02T12:05:52;1011.4;;;9.7;100
45113;BME280;30873;53.908;27.576;2023-04-02T12:11:09;1011.5;;;9.7;100
45113;BME280;30873;53.908;27.576;2023-04-02T12:16:39;1011.6;;;9.6;100
45113;BME280;30873;53.908;27.576;2023-04-02T12:21:05;1011.6;;;9.8;100
45113;BME280;30873;53.908;27.576;2023-04-02T12:26:26;1011.7;;;9.6;100
45113;BME280;30873;53.908;27.576;2023-04-02T12:30:51;1011.8;;;9.3;100
45113;BME280;30873;53.908;27.576;2023-04-02T12:36:17;1011.8;;;9.4;100
45113;BME280;30873;53.908;27.576;2023-04-02T12:41:41;1011.9;;;9.6;100
45113;BME280;30873;53.908;27.576;2023-04-02T12:45:52;1011.9;;;9.6;100
45113;BME280;30873;53.908;27.576;2023-04-02T12:51:21;1012;;;9.4;100
45113;BME280;30873;53.908;27.576;2023-04-02T12:56:27;1012;;;9.1;100
45113;BME280;30873;53.908;27.576;2023-04-02T13:01:10;1012.1;;;9.2;100
45113;BME280;30873;53.908;27.576;2023-04-02T13:06:39;1012.2;;;9.2;100
45113;BME280;30873;53.908;27.576;2023-04-02T13:11:15;1012.3;;;9.3;100
45113;BME280;30873;53.908;27.576;2023-04-02T13:16:24;1012.4;;;9.2;100
45113;BME280;30873;53.908;27.576;2023-04-02T13:21:29;1012.4;;;9.1;100
45113;BME280;30873;53.908;27.576;2023-04-02T13:26:00;1012.4;;;9.1;100
45113;BME280;30873;53.908;27.576;2023-04-02T13:31:17;1012.4;;;8.9;100
45113;BME280;30873;53.908;27.576;2023-04-02T13:35:51;1012.4;;;8.8;100
45113;BME280;30873;53.908;27.576;2023-04-02T13:41:24;1012.4;;;8.7;100
45113;BME280;30873;53.908;27.576;2023-04-02T13:46:01;1012.5;;;8.7;100
45113;BME280;30873;53.908;27.576;2023-04-02T13:50:51;1012.6;;;8.8;100
45113;BME280;30873;53.908;27.576;2023-04-02T13:56:39;1012.7;;;8.8;100
45113;BME280;30873;53.908;27.576;2023-04-02T14:00:51;1012.7;;;8.7;100
45113;BME280;30873;53.908;27.576;2023-04-02T14:06:15;1012.8;;;8.6;100
45113;BME280;30873;53.908;27.576;2023-04-02T14:11:04;1012.9;;;8.3;100
45113;BME280;30873;53.908;27.576;2023-04-02T14:16:14;1013;;;8.3;100
45113;BME280;30873;53.908;27.576;2023-04-02T14:21:41;1013.1;;;8.5;100
45113;BME280;30873;53.908;27.576;2023-04-02T14:26:16;1013.1;;;8.5;100
45113;BME280;30873;53.908;27.576;2023-04-02T14:31:17;1013.2;;;8.4;100
45113;BME280;30873;53.908;27.576;2023-04-02T14:36:06;1013.2;;;8.3;100
45113;BME280;30873;53.908;27.576;2023-04-02T14:41:02;1013.4;;;8.2;100
45113;BME280;30873;53.908;27.576;2023-04-02T14:46:41;1013.5;;;8.2;100
45113;BME280;30873;53.908;27.576;2023-04-02T14:51:02;1013.5;;;8.1;100
45113;BME280;30873;53.908;27.576;2023-04-02T14:56:23;1013.6;;;8;100
45113;BME280;30873;53.908;27.576;2023-04-02T15:01:02;1013.6;;;7.7;100
45113;BME280;30873;53.908;27.576;2023-04-02T15:06:10;1013.7;;;7.6;100
45113;BME280;30873;53.908;27.576;2023-04-02T15:11:40;1013.8;;;7.6;100
45113;BME280;30873;53.908;27.576;2023-04-02T15:16:04;1013.8;;;7.7;100
45113;BME280;30873;53.908;27.576;2023-04-02T15:21:28;1013.9;;;7.7;100
45113;BME280;30873;53.908;27.576;2023-04-02T15:26:04;1014;;;7.7;100
45113;BME280;30873;53.908;27.576;2023-04-02T15:31:39;1014;;;7.7;100
45113;BME280;30873;53.908;27.576;2023-04-02T15:36:19;1014.1;;;7.7;100
45113;BME280;30873;53.908;27.576;2023-04-02T15:41:39;1014.2;;;7.4;100
45113;BME280;30873;53.908;27.576;2023-04-02T15:46:28;1014.2;;;7.4;100
45113;BME280;30873;53.908;27.576;2023-04-02T15:51:04;1014.3;;;7.4;100
45113;BME280;30873;53.908;27.576;2023-04-02T15:56:41;1014.4;;;7.2;100
45113;BME280;30873;53.908;27.576;2023-04-02T16:01:24;1014.5;;;7.1;100
45113;BME280;30873;53.908;27.576;2023-04-02T16:06:41;1014.6;;;7;100
45113;BME280;30873;53.908;27.576;2023-04-02T16:11:13;1014.7;;;7;100
45113;BME280;30873;53.908;27.576;2023-04-02T16:15:52;1014.8;;;6.8;100
45113;BME280;30873;53.908;27.576;2023-04-02T16:21:39;1014.8;;;6.7;100
45113;BME280;30873;53.908;27.576;2023-04-02T16:25:53;1014.9;;;6.7;100
45113;BME280;30873;53.908;27.576;2023-04-02T16:31:37;1015;;;6.6;100
45113;BME280;30873;53.908;27.576;2023-04-02T16:36:16;1015;;;6.5;100
45113;BME280;30873;53.908;27.576;2023-04-02T16:41:01;1015;;;6.5;100
45113;BME280;30873;53.908;27.576;2023-04-02T16:46:39;1015.1;;;6.5;100
45113;BME280;30873;53.908;27.576;2023-04-02T16:51:16;1015.2;;;6.5;100
45113;BME280;30873;53.908;27.576;2023-04-02T16:56:37;1015.3;;;6.4;100
45113;BME280;30873;53.908;27.576;2023-04-02T17:01:29;1015.4;;;6.4;100
45113;BME280;30873;53.908;27.576;2023-04-02T17:06:12;1015.5;;;6.3;100
45113;BME280;30873;53.908;27.576;2023-04-02T17:11:39;1015.6;;;6.3;100
45113;BME280;30873;53.908;27.576;2023-04-02T17:16:15;1015.7;;;6.1;100
45113;BME280;30873;53.908;27.576;2023-04-02T17:21:12;1015.8;;;5.9;100
45113;BME280;30873;53.908;27.576;2023-04-02T17:26:28;1015.9;;;5.9;100
45113;BME280;30873;53.908;27.576;2023-04-02T17:30:52;1016;;;6;100
45113;BME280;30873;53.908;27.576;2023-04-02T17:36:37;1016.1;;;6;100
45113;BME280;30873;53.908;27.576;2023-04-02T17:41:12;1016.1;;;6.1;100
45113;BME280;30873;53.908;27.576;2023-04-02T17:46:36;1016.1;;;5.9;100
45113;BME280;30873;53.908;27.576;2023-04-02T17:51:29;1016.1;;;5.8;100
45113;BME280;30873;53.908;27.576;2023-04-02T17:56:03;1016.1;;;5.7;100
45113;BME280;30873;53.908;27.576;2023-04-02T18:01:27;1016.1;;;5.8;100
45113;BME280;30873;53.908;27.576;2023-04-02T18:06:23;1016.1;;;5.8;100
45113;BME280;30873;53.908;27.576;2023-04-02T18:11:42;1016.2;;;5.8;100
45113;BME280;30873;53.908;27.576;2023-04-02T18:16:35;1016.2;;;5.7;100
45113;BME280;30873;53.908;27.576;2023-04-02T18:20:52;1016.3;;;5.7;100
45113;BME280;30873;53.908;27.576;2023-04-02T18:26:43;1016.3;;;5.8;100
45113;BME280;30873;53.908;27.576;2023-04-02T18:31:17;1016.3;;;5.8;100
45113;BME280;30873;53.908;27.576;2023-04-02T18:36:41;1016.3;;;5.9;100
45113;BME280;30873;53.908;27.576;2023-04-02T18:41:36;1016.4;;;5.7;100
45113;BME280;30873;53.908;27.576;2023-04-02T18:46:02;1016.4;;;5.8;100
45113;BME280;30873;53.908;27.576;2023-04-02T18:51:39;1016.5;;;5.8;100
45113;BME280;30873;53.908;27.576;2023-04-02T18:56:16;1016.5;;;5.6;100
45113;BME280;30873;53.908;27.576;2023-04-02T19:01:32;1016.5;;;5.5;100
45113;BME280;30873;53.908;27.576;2023-04-02T19:06:31;1016.6;;;5.4;100
45113;BME280;30873;53.908;27.576;2023-04-02T19:10:52;1016.6;;;5.5;100
45113;BME280;30873;53.908;27.576;2023-04-02T19:16:43;1016.6;;;5.5;100
45113;BME280;30873;53.908;27.576;2023-04-02T19:21:07;1016.6;;;5.5;100
45113;BME280;30873;53.908;27.576;2023-04-02T19:26:41;1016.7;;;5.5;100
45113;BME280;30873;53.908;27.576;2023-04-02T19:31:33;1016.7;;;5.4;100
45113;BME280;30873;53.908;27.576;2023-04-02T19:36:14;1016.8;;;5.5;100
45113;BME280;30873;53.908;27.576;2023-04-02T19:41:17;1016.8;;;5.5;100
45113;BME280;30873;53.908;27.576;2023-04-02T19:46:21;1016.8;;;5.5;100
45113;BME280;30873;53.908;27.576;2023-04-02T19:51:37;1016.8;;;5.5;100
45113;BME280;30873;53.908;27.576;2023-04-02T19:56:29;1016.8;;;5.5;100
45113;BME280;30873;53.908;27.576;2023-04-02T20:01:09;1016.8;;;5.4;100
45113;BME280;30873;53.908;27.576;2023-04-02T20:06:29;1016.8;;;5.3;100
45113;BME280;30873;53.908;27.576;2023-04-02T20:11:24;1016.8;;;5.3;100
45113;BME280;30873;53.908;27.576;2023-04-02T20:16:37;1016.9;;;5.3;100
45113;BME280;30873;53.908;27.576;2023-04-02T20:21:29;1016.9;;;5.3;100
45113;BME280;30873;53.908;27.576;2023-04-02T20:26:09;1017;;;5.3;100
45113;BME280;30873;53.908;27.576;2023-04-02T20:31:39;1017;;;5.1;100
45113;BME280;30873;53.908;27.576;2023-04-02T20:36:16;1017;;;5.2;100
45113;BME280;30873;53.908;27.576;2023-04-02T20:41:39;1017.1;;;5.1;100
45113;BME280;30873;53.908;27.576;2023-04-02T20:46:19;1017.1;;;5;100
45113;BME280;30873;53.908;27.576;2023-04-02T20:51:10;1017.2;;;5;100
45113;BME280;30873;53.908;27.576;2023-04-02T20:56:29;1017.2;;;5;100
45113;BME280;30873;53.908;27.576;2023-04-02T21:01:24;1017.2;;;5.1;100
45113;BME280;30873;53.908;27.576;2023-04-02T21:06:26;1017.2;;;5.1;100
45113;BME280;30873;53.908;27.576;2023-04-02T21:11:31;1017.3;;;5.1;100
45113;BME280;30873;53.908;27.576;2023-04-02T21:16:26;1017.2;;;5.1;100
45113;BME280;30873;53.908;27.576;2023-04-02T21:21:43;1017.2;;;5;100
45113;BME280;30873;53.908;27.576;2023-04-02T21:26:16;1017.2;;;5;100
45113;BME280;30873;53.908;27.576;2023-04-02T21:31:41;1017.2;;;5.1;100
45113;BME280;30873;53.908;27.576;2023-04-02T21:36:32;1017.2;;;5;100
45113;BME280;30873;53.908;27.576;2023-04-02T21:40:51;1017.2;;;4.9;100
45113;BME280;30873;53.908;27.576;2023-04-02T21:46:30;1017.2;;;4.9;100
45113;BME280;30873;53.908;27.576;2023-04-02T21:50:51;1017.3;;;4.9;100
45113;BME280;30873;53.908;27.576;2023-04-02T21:56:18;1017.3;;;4.9;100
45113;BME280;30873;53.908;27.576;2023-04-02T22:01:30;1017.3;;;4.8;100
45113;BME280;30873;53.908;27.576;2023-04-02T22:06:10;1017.4;;;4.8;100
45113;BME280;30873;53.908;27.576;2023-04-02T22:11:18;1017.4;;;4.8;100
45113;BME280;30873;53.908;27.576;2023-04-02T22:16:24;1017.5;;;4.7;100
45113;BME280;30873;53.908;27.576;2023-04-02T22:21:44;1017.5;;;4.7;100
45113;BME280;30873;53.908;27.576;2023-04-02T22:26:31;1017.6;;;4.8;100
45113;BME280;30873;53.908;27.576;2023-04-02T22:31:02;1017.5;;;4.7;100
45113;BME280;30873;53.908;27.576;2023-04-02T22:36:32;1017.6;;;4.7;100
45113;BME280;30873;53.908;27.576;2023-04-02T22:40:51;1017.7;;;4.7;100
45113;BME280;30873;53.908;27.576;2023-04-02T22:46:41;1017.7;;;4.7;100
45113;BME280;30873;53.908;27.576;2023-04-02T22:51:29;1017.7;;;4.6;100
45113;BME280;30873;53.908;27.576;2023-04-02T22:55:52;1017.6;;;4.7;100
45113;BME280;30873;53.908;27.576;2023-04-02T23:01:18;1017.6;;;4.8;100
45113;BME280;30873;53.908;27.576;2023-04-02T23:06:16;1017.6;;;4.7;99.9
45113;BME280;30873;53.908;27.576;2023-04-02T23:11:39;1017.7;;;4.7;100
45113;BME280;30873;53.908;27.576;2023-04-02T23:16:29;1017.7;;;4.8;100
45113;BME280;30873;53.908;27.576;2023-04-02T23:20:59;1017.7;;;4.7;99.9
45113;BME280;30873;53.908;27.576;2023-04-02T23:26:29;1017.7;;;4.8;100
45113;BME280;30873;53.908;27.576;2023-04-02T23:31:16;1017.6;;;4.9;99.6
45113;BME280;30873;53.908;27.576;2023-04-02T23:36:39;1017.6;;;4.8;99.1
45113;BME280;30873;53.908;27.576;2023-04-02T23:41:16;1017.7;;;4.8;98.9
45113;BME280;30873;53.908;27.576;2023-04-02T23:46:01;1017.7;;;4.7;99.3
45113;BME280;30873;53.908;27.576;2023-04-02T23:51:30;1017.8;;;4.7;99.4
45113;BME280;30873;53.908;27.576;2023-04-02T23:56:16;1017.8;;;4.7;99.7
